sensor_id;sensor_type;location;lat;lon;timestamp;P1;durP1;ratioP1;P2;durP2;ratioP2
5752;SDS011;2901;42.140;24.760;2022-11-02T00:02:10;21.13;;;9.90;;
5752;SDS011;2901;42.140;24.760;2022-11-02T00:04:36;20.40;;;9.90;;
5752;SDS011;2901;42.140;24.760;2022-11-02T00:07:01;16.77;;;9.07;;
5752;SDS011;2901;42.140;24.760;2022-11-02T00:09:26;19.00;;;9.05;;
5752;SDS011;2901;42.140;24.760;2022-11-02T00:11:52;18.42;;;8.50;;
5752;SDS011;2901;42.140;24.760;2022-11-02T00:14:17;24.95;;;10.02;;
5752;SDS011;2901;42.140;24.760;2022-11-02T00:16:42;19.30;;;9.15;;
5752;SDS011;2901;42.140;24.760;2022-11-02T00:19:08;18.05;;;8.73;;
5752;SDS011;2901;42.140;24.760;2022-11-02T00:21:34;18.08;;;9.88;;
5752;SDS011;2901;42.140;24.760;2022-11-02T00:24:00;19.30;;;9.68;;
5752;SDS011;2901;42.140;24.760;2022-11-02T00:26:27;19.17;;;9.95;;
5752;SDS011;2901;42.140;24.760;2022-11-02T00:28:53;22.50;;;8.82;;
5752;SDS011;2901;42.140;24.760;2022-11-02T00:31:19;16.50;;;9.25;;
5752;SDS011;2901;42.140;24.760;2022-11-02T00:33:44;14.85;;;8.43;;
5752;SDS011;2901;42.140;24.760;2022-11-02T00:36:10;10.15;;;8.10;;
5752;SDS011;2901;42.140;24.760;2022-11-02T00:38:36;12.23;;;8.18;;
5752;SDS011;2901;42.140;24.760;2022-11-02T00:41:01;16.73;;;9.35;;
5752;SDS011;2901;42.140;24.760;2022-11-02T00:43:26;12.02;;;9.30;;
5752;SDS011;2901;42.140;24.760;2022-11-02T00:45:52;13.43;;;9.00;;
5752;SDS011;2901;42.140;24.760;2022-11-02T00:48:17;13.48;;;9.32;;
5752;SDS011;2901;42.140;24.760;2022-11-02T00:50:42;11.95;;;7.70;;
5752;SDS011;2901;42.140;24.760;2022-11-02T00:53:08;16.48;;;9.25;;
5752;SDS011;2901;42.140;24.760;2022-11-02T00:55:33;13.02;;;7.93;;
5752;SDS011;2901;42.140;24.760;2022-11-02T00:57:59;14.63;;;8.70;;
5752;SDS011;2901;42.140;24.760;2022-11-02T01:00:24;21.33;;;8.70;;
5752;SDS011;2901;42.140;24.760;2022-11-02T01:02:49;23.67;;;9.63;;
5752;SDS011;2901;42.140;24.760;2022-11-02T01:05:15;11.27;;;8.30;;
5752;SDS011;2901;42.140;24.760;2022-11-02T01:07:40;17.73;;;8.50;;
5752;SDS011;2901;42.140;24.760;2022-11-02T01:10:06;14.25;;;8.88;;
5752;SDS011;2901;42.140;24.760;2022-11-02T01:12:35;15.85;;;8.40;;
5752;SDS011;2901;42.140;24.760;2022-11-02T01:15:05;18.10;;;8.68;;
5752;SDS011;2901;42.140;24.760;2022-11-02T01:17:32;18.20;;;9.05;;
5752;SDS011;2901;42.140;24.760;2022-11-02T01:19:57;19.02;;;8.77;;
5752;SDS011;2901;42.140;24.760;2022-11-02T01:22:23;14.30;;;8.60;;
5752;SDS011;2901;42.140;24.760;2022-11-02T01:24:48;9.35;;;8.07;;
5752;SDS011;2901;42.140;24.760;2022-11-02T01:27:13;13.60;;;9.10;;
5752;SDS011;2901;42.140;24.760;2022-11-02T01:29:39;16.13;;;9.35;;
5752;SDS011;2901;42.140;24.760;2022-11-02T01:32:04;15.63;;;9.80;;
5752;SDS011;2901;42.140;24.760;2022-11-02T01:34:30;17.08;;;9.68;;
5752;SDS011;2901;42.140;24.760;2022-11-02T01:36:55;11.77;;;9.63;;
5752;SDS011;2901;42.140;24.760;2022-11-02T01:39:20;13.93;;;9.13;;
5752;SDS011;2901;42.140;24.760;2022-11-02T01:41:49;12.43;;;9.38;;
5752;SDS011;2901;42.140;24.760;2022-11-02T01:44:31;18.85;;;9.38;;
5752;SDS011;2901;42.140;24.760;2022-11-02T01:47:06;15.35;;;10.02;;
5752;SDS011;2901;42.140;24.760;2022-11-02T01:49:37;19.70;;;10.23;;
5752;SDS011;2901;42.140;24.760;2022-11-02T01:54:43;17.40;;;10.85;;
5752;SDS011;2901;42.140;24.760;2022-11-02T01:57:12;22.92;;;11.57;;
5752;SDS011;2901;42.140;24.760;2022-11-02T01:59:46;19.90;;;11.25;;
5752;SDS011;2901;42.140;24.760;2022-11-02T02:02:17;15.93;;;10.88;;
5752;SDS011;2901;42.140;24.760;2022-11-02T02:04:50;19.50;;;12.40;;
5752;SDS011;2901;42.140;24.760;2022-11-02T02:07:22;20.83;;;11.82;;
5752;SDS011;2901;42.140;24.760;2022-11-02T02:09:49;18.15;;;11.95;;
5752;SDS011;2901;42.140;24.760;2022-11-02T02:12:16;15.52;;;11.40;;
5752;SDS011;2901;42.140;24.760;2022-11-02T02:14:43;17.63;;;10.25;;
5752;SDS011;2901;42.140;24.760;2022-11-02T02:17:15;14.50;;;11.27;;
5752;SDS011;2901;42.140;24.760;2022-11-02T02:31:15;27.98;;;11.18;;
5752;SDS011;2901;42.140;24.760;2022-11-02T02:33:44;21.58;;;10.60;;
5752;SDS011;2901;42.140;24.760;2022-11-02T02:41:40;11.45;;;10.43;;
5752;SDS011;2901;42.140;24.760;2022-11-02T02:44:13;20.95;;;12.45;;
5752;SDS011;2901;42.140;24.760;2022-11-02T02:46:47;21.20;;;12.07;;
5752;SDS011;2901;42.140;24.760;2022-11-02T02:49:26;21.85;;;12.32;;
5752;SDS011;2901;42.140;24.760;2022-11-02T02:51:58;19.13;;;12.23;;
5752;SDS011;2901;42.140;24.760;2022-11-02T02:54:27;29.63;;;12.57;;
5752;SDS011;2901;42.140;24.760;2022-11-02T02:57:00;22.08;;;12.15;;
5752;SDS011;2901;42.140;24.760;2022-11-02T02:59:40;24.92;;;11.82;;
5752;SDS011;2901;42.140;24.760;2022-11-02T03:02:15;24.38;;;11.95;;
5752;SDS011;2901;42.140;24.760;2022-11-02T03:04:45;24.13;;;12.60;;
5752;SDS011;2901;42.140;24.760;2022-11-02T03:07:13;14.68;;;10.88;;
5752;SDS011;2901;42.140;24.760;2022-11-02T03:09:44;17.02;;;11.77;;
5752;SDS011;2901;42.140;24.760;2022-11-02T03:15:15;18.95;;;11.00;;
5752;SDS011;2901;42.140;24.760;2022-11-02T03:17:55;16.45;;;10.98;;
5752;SDS011;2901;42.140;24.760;2022-11-02T03:31:08;18.60;;;12.05;;
5752;SDS011;2901;42.140;24.760;2022-11-02T03:33:45;13.90;;;10.20;;
5752;SDS011;2901;42.140;24.760;2022-11-02T03:36:21;24.27;;;10.85;;
5752;SDS011;2901;42.140;24.760;2022-11-02T03:38:55;16.17;;;10.63;;
5752;SDS011;2901;42.140;24.760;2022-11-02T03:41:24;14.05;;;8.57;;
5752;SDS011;2901;42.140;24.760;2022-11-02T03:43:53;15.20;;;10.95;;
5752;SDS011;2901;42.140;24.760;2022-11-02T03:46:23;15.25;;;10.95;;
5752;SDS011;2901;42.140;24.760;2022-11-02T03:48:50;23.70;;;11.55;;
5752;SDS011;2901;42.140;24.760;2022-11-02T03:51:19;14.27;;;10.35;;
5752;SDS011;2901;42.140;24.760;2022-11-02T03:53:48;15.48;;;10.60;;
5752;SDS011;2901;42.140;24.760;2022-11-02T03:56:35;27.92;;;11.02;;
5752;SDS011;2901;42.140;24.760;2022-11-02T03:59:01;21.75;;;11.98;;
5752;SDS011;2901;42.140;24.760;2022-11-02T04:01:27;24.25;;;11.98;;
5752;SDS011;2901;42.140;24.760;2022-11-02T04:03:54;22.27;;;11.25;;
5752;SDS011;2901;42.140;24.760;2022-11-02T04:06:20;23.50;;;11.55;;
5752;SDS011;2901;42.140;24.760;2022-11-02T04:08:47;25.23;;;11.45;;
5752;SDS011;2901;42.140;24.760;2022-11-02T04:11:13;29.55;;;13.13;;
5752;SDS011;2901;42.140;24.760;2022-11-02T04:13:58;24.35;;;12.95;;
5752;SDS011;2901;42.140;24.760;2022-11-02T04:16:43;22.70;;;12.63;;
5752;SDS011;2901;42.140;24.760;2022-11-02T04:19:08;28.00;;;13.55;;
5752;SDS011;2901;42.140;24.760;2022-11-02T04:21:53;18.25;;;12.85;;
5752;SDS011;2901;42.140;24.760;2022-11-02T04:24:38;22.95;;;12.10;;
5752;SDS011;2901;42.140;24.760;2022-11-02T04:27:22;17.52;;;10.52;;
5752;SDS011;2901;42.140;24.760;2022-11-02T04:29:48;18.65;;;10.82;;
5752;SDS011;2901;42.140;24.760;2022-11-02T04:32:13;20.45;;;13.35;;
5752;SDS011;2901;42.140;24.760;2022-11-02T04:34:39;21.58;;;11.13;;
5752;SDS011;2901;42.140;24.760;2022-11-02T04:37:04;16.48;;;11.30;;
5752;SDS011;2901;42.140;24.760;2022-11-02T04:39:49;24.10;;;11.93;;
5752;SDS011;2901;42.140;24.760;2022-11-02T04:42:15;24.92;;;11.98;;
5752;SDS011;2901;42.140;24.760;2022-11-02T04:44:40;21.23;;;10.32;;
5752;SDS011;2901;42.140;24.760;2022-11-02T04:47:05;13.52;;;9.75;;
5752;SDS011;2901;42.140;24.760;2022-11-02T04:49:31;11.35;;;9.60;;
5752;SDS011;2901;42.140;24.760;2022-11-02T04:51:56;13.18;;;10.23;;
5752;SDS011;2901;42.140;24.760;2022-11-02T04:54:21;18.58;;;9.95;;
5752;SDS011;2901;42.140;24.760;2022-11-02T04:56:47;14.35;;;9.70;;
5752;SDS011;2901;42.140;24.760;2022-11-02T04:59:12;15.63;;;9.90;;
5752;SDS011;2901;42.140;24.760;2022-11-02T05:01:37;13.95;;;10.27;;
5752;SDS011;2901;42.140;24.760;2022-11-02T05:04:03;14.02;;;10.63;;
5752;SDS011;2901;42.140;24.760;2022-11-02T05:06:29;18.63;;;10.15;;
5752;SDS011;2901;42.140;24.760;2022-11-02T05:08:54;18.30;;;9.38;;
5752;SDS011;2901;42.140;24.760;2022-11-02T05:11:20;14.73;;;8.80;;
5752;SDS011;2901;42.140;24.760;2022-11-02T05:13:45;20.15;;;8.70;;
5752;SDS011;2901;42.140;24.760;2022-11-02T05:16:12;13.88;;;8.00;;
5752;SDS011;2901;42.140;24.760;2022-11-02T05:18:39;14.50;;;8.95;;
5752;SDS011;2901;42.140;24.760;2022-11-02T05:21:04;17.50;;;8.27;;
5752;SDS011;2901;42.140;24.760;2022-11-02T05:23:30;13.75;;;8.10;;
5752;SDS011;2901;42.140;24.760;2022-11-02T05:25:57;29.48;;;9.30;;
5752;SDS011;2901;42.140;24.760;2022-11-02T05:28:24;18.85;;;8.93;;
5752;SDS011;2901;42.140;24.760;2022-11-02T05:30:50;17.90;;;9.13;;
5752;SDS011;2901;42.140;24.760;2022-11-02T05:33:15;24.83;;;8.80;;
5752;SDS011;2901;42.140;24.760;2022-11-02T05:35:41;27.35;;;7.75;;
5752;SDS011;2901;42.140;24.760;2022-11-02T05:38:07;25.27;;;8.65;;
5752;SDS011;2901;42.140;24.760;2022-11-02T05:40:33;19.60;;;8.23;;
5752;SDS011;2901;42.140;24.760;2022-11-02T05:43:01;12.38;;;8.10;;
5752;SDS011;2901;42.140;24.760;2022-11-02T05:45:27;25.80;;;10.13;;
5752;SDS011;2901;42.140;24.760;2022-11-02T05:47:53;18.67;;;8.82;;
5752;SDS011;2901;42.140;24.760;2022-11-02T05:50:19;17.85;;;8.95;;
5752;SDS011;2901;42.140;24.760;2022-11-02T05:52:45;26.77;;;10.02;;
5752;SDS011;2901;42.140;24.760;2022-11-02T05:55:11;29.98;;;9.35;;
5752;SDS011;2901;42.140;24.760;2022-11-02T05:57:36;22.75;;;9.15;;
5752;SDS011;2901;42.140;24.760;2022-11-02T06:00:03;20.13;;;8.27;;
5752;SDS011;2901;42.140;24.760;2022-11-02T06:02:29;44.88;;;10.40;;
5752;SDS011;2901;42.140;24.760;2022-11-02T06:04:54;40.67;;;11.02;;
5752;SDS011;2901;42.140;24.760;2022-11-02T06:07:20;38.83;;;10.52;;
5752;SDS011;2901;42.140;24.760;2022-11-02T06:09:45;17.67;;;7.22;;
5752;SDS011;2901;42.140;24.760;2022-11-02T06:12:11;35.25;;;11.80;;
5752;SDS011;2901;42.140;24.760;2022-11-02T06:14:36;27.10;;;9.15;;
5752;SDS011;2901;42.140;24.760;2022-11-02T06:17:01;21.10;;;8.77;;
5752;SDS011;2901;42.140;24.760;2022-11-02T06:19:27;25.52;;;8.77;;
5752;SDS011;2901;42.140;24.760;2022-11-02T06:21:52;14.48;;;7.88;;
5752;SDS011;2901;42.140;24.760;2022-11-02T06:24:17;16.45;;;8.38;;
5752;SDS011;2901;42.140;24.760;2022-11-02T06:26:43;38.03;;;9.85;;
5752;SDS011;2901;42.140;24.760;2022-11-02T06:29:10;18.75;;;9.02;;
5752;SDS011;2901;42.140;24.760;2022-11-02T06:31:36;20.33;;;9.93;;
5752;SDS011;2901;42.140;24.760;2022-11-02T06:34:01;29.70;;;9.95;;
5752;SDS011;2901;42.140;24.760;2022-11-02T06:36:27;18.05;;;8.68;;
5752;SDS011;2901;42.140;24.760;2022-11-02T06:38:52;26.35;;;8.38;;
5752;SDS011;2901;42.140;24.760;2022-11-02T06:41:17;23.13;;;9.25;;
5752;SDS011;2901;42.140;24.760;2022-11-02T06:43:43;25.45;;;10.07;;
5752;SDS011;2901;42.140;24.760;2022-11-02T06:46:08;25.40;;;9.70;;
5752;SDS011;2901;42.140;24.760;2022-11-02T06:48:34;33.47;;;10.93;;
5752;SDS011;2901;42.140;24.760;2022-11-02T06:50:59;18.70;;;10.18;;
5752;SDS011;2901;42.140;24.760;2022-11-02T06:53:25;11.10;;;9.55;;
5752;SDS011;2901;42.140;24.760;2022-11-02T06:55:51;24.10;;;11.23;;
5752;SDS011;2901;42.140;24.760;2022-11-02T06:58:17;26.85;;;10.05;;
5752;SDS011;2901;42.140;24.760;2022-11-02T07:00:43;21.20;;;9.90;;
5752;SDS011;2901;42.140;24.760;2022-11-02T07:03:09;22.60;;;8.93;;
5752;SDS011;2901;42.140;24.760;2022-11-02T07:05:35;16.63;;;9.70;;
5752;SDS011;2901;42.140;24.760;2022-11-02T07:08:01;10.25;;;8.88;;
5752;SDS011;2901;42.140;24.760;2022-11-02T07:10:27;25.20;;;10.60;;
5752;SDS011;2901;42.140;24.760;2022-11-02T07:12:53;31.45;;;8.90;;
5752;SDS011;2901;42.140;24.760;2022-11-02T07:15:20;17.30;;;7.95;;
5752;SDS011;2901;42.140;24.760;2022-11-02T07:17:47;17.10;;;7.07;;
5752;SDS011;2901;42.140;24.760;2022-11-02T07:20:12;20.88;;;9.45;;
5752;SDS011;2901;42.140;24.760;2022-11-02T07:22:37;24.58;;;9.82;;
5752;SDS011;2901;42.140;24.760;2022-11-02T07:25:04;22.77;;;9.63;;
5752;SDS011;2901;42.140;24.760;2022-11-02T07:27:30;28.92;;;11.30;;
5752;SDS011;2901;42.140;24.760;2022-11-02T07:29:55;27.42;;;10.75;;
5752;SDS011;2901;42.140;24.760;2022-11-02T07:32:22;13.75;;;8.45;;
5752;SDS011;2901;42.140;24.760;2022-11-02T07:34:47;15.55;;;7.50;;
5752;SDS011;2901;42.140;24.760;2022-11-02T07:37:13;13.70;;;8.05;;
5752;SDS011;2901;42.140;24.760;2022-11-02T07:39:38;10.25;;;8.23;;
5752;SDS011;2901;42.140;24.760;2022-11-02T07:42:03;12.68;;;7.32;;
5752;SDS011;2901;42.140;24.760;2022-11-02T07:44:31;19.45;;;7.53;;
5752;SDS011;2901;42.140;24.760;2022-11-02T07:46:56;11.60;;;7.60;;
5752;SDS011;2901;42.140;24.760;2022-11-02T07:49:21;14.75;;;8.38;;
5752;SDS011;2901;42.140;24.760;2022-11-02T07:51:47;46.47;;;10.27;;
5752;SDS011;2901;42.140;24.760;2022-11-02T07:54:12;20.13;;;7.13;;
5752;SDS011;2901;42.140;24.760;2022-11-02T07:56:38;11.93;;;6.90;;
5752;SDS011;2901;42.140;24.760;2022-11-02T07:59:03;14.18;;;6.35;;
5752;SDS011;2901;42.140;24.760;2022-11-02T08:01:29;8.38;;;6.03;;
5752;SDS011;2901;42.140;24.760;2022-11-02T08:03:54;16.73;;;6.13;;
5752;SDS011;2901;42.140;24.760;2022-11-02T08:06:21;10.73;;;5.10;;
5752;SDS011;2901;42.140;24.760;2022-11-02T08:08:46;10.63;;;6.03;;
5752;SDS011;2901;42.140;24.760;2022-11-02T08:11:11;17.60;;;6.10;;
5752;SDS011;2901;42.140;24.760;2022-11-02T08:13:37;12.50;;;5.85;;
5752;SDS011;2901;42.140;24.760;2022-11-02T08:16:03;15.60;;;5.57;;
5752;SDS011;2901;42.140;24.760;2022-11-02T08:18:28;17.40;;;5.70;;
5752;SDS011;2901;42.140;24.760;2022-11-02T08:20:55;17.08;;;5.95;;
5752;SDS011;2901;42.140;24.760;2022-11-02T08:23:21;23.88;;;6.65;;
5752;SDS011;2901;42.140;24.760;2022-11-02T08:25:48;21.20;;;7.53;;
5752;SDS011;2901;42.140;24.760;2022-11-02T08:28:16;19.05;;;6.05;;
5752;SDS011;2901;42.140;24.760;2022-11-02T08:30:44;12.77;;;5.75;;
5752;SDS011;2901;42.140;24.760;2022-11-02T08:33:11;14.38;;;5.57;;
5752;SDS011;2901;42.140;24.760;2022-11-02T08:35:39;14.77;;;5.50;;
5752;SDS011;2901;42.140;24.760;2022-11-02T08:38:06;16.60;;;6.07;;
5752;SDS011;2901;42.140;24.760;2022-11-02T08:40:32;9.60;;;5.90;;
5752;SDS011;2901;42.140;24.760;2022-11-02T08:42:59;18.20;;;7.30;;
5752;SDS011;2901;42.140;24.760;2022-11-02T08:45:26;12.32;;;5.25;;
5752;SDS011;2901;42.140;24.760;2022-11-02T08:47:52;16.92;;;5.85;;
5752;SDS011;2901;42.140;24.760;2022-11-02T08:50:18;21.30;;;6.30;;
5752;SDS011;2901;42.140;24.760;2022-11-02T08:52:43;7.63;;;4.90;;
5752;SDS011;2901;42.140;24.760;2022-11-02T08:55:09;21.63;;;5.38;;
5752;SDS011;2901;42.140;24.760;2022-11-02T08:57:44;18.98;;;5.53;;
5752;SDS011;2901;42.140;24.760;2022-11-02T09:00:14;24.85;;;6.40;;
5752;SDS011;2901;42.140;24.760;2022-11-02T09:02:41;11.63;;;6.13;;
5752;SDS011;2901;42.140;24.760;2022-11-02T09:05:06;17.95;;;6.18;;
5752;SDS011;2901;42.140;24.760;2022-11-02T09:07:32;15.60;;;6.30;;
5752;SDS011;2901;42.140;24.760;2022-11-02T09:09:58;22.13;;;6.18;;
5752;SDS011;2901;42.140;24.760;2022-11-02T09:12:23;16.17;;;5.97;;
5752;SDS011;2901;42.140;24.760;2022-11-02T09:14:48;14.18;;;5.53;;
5752;SDS011;2901;42.140;24.760;2022-11-02T09:17:14;24.90;;;5.95;;
5752;SDS011;2901;42.140;24.760;2022-11-02T09:19:39;14.18;;;6.72;;
5752;SDS011;2901;42.140;24.760;2022-11-02T09:22:05;15.02;;;5.70;;
5752;SDS011;2901;42.140;24.760;2022-11-02T09:24:30;21.55;;;7.07;;
5752;SDS011;2901;42.140;24.760;2022-11-02T09:26:55;22.95;;;6.13;;
5752;SDS011;2901;42.140;24.760;2022-11-02T09:29:21;20.25;;;5.63;;
5752;SDS011;2901;42.140;24.760;2022-11-02T09:31:46;19.92;;;6.20;;
5752;SDS011;2901;42.140;24.760;2022-11-02T09:34:13;21.23;;;6.43;;
5752;SDS011;2901;42.140;24.760;2022-11-02T09:36:39;14.55;;;6.78;;
5752;SDS011;2901;42.140;24.760;2022-11-02T09:39:04;8.30;;;6.13;;
5752;SDS011;2901;42.140;24.760;2022-11-02T09:44:07;17.30;;;6.45;;
5752;SDS011;2901;42.140;24.760;2022-11-02T09:46:36;11.60;;;6.50;;
5752;SDS011;2901;42.140;24.760;2022-11-02T09:49:05;27.40;;;6.80;;
5752;SDS011;2901;42.140;24.760;2022-11-02T09:56:42;21.25;;;6.65;;
5752;SDS011;2901;42.140;24.760;2022-11-02T09:59:30;13.88;;;6.32;;
5752;SDS011;2901;42.140;24.760;2022-11-02T10:07:32;26.77;;;6.97;;
5752;SDS011;2901;42.140;24.760;2022-11-02T10:12:53;16.77;;;6.97;;
5752;SDS011;2901;42.140;24.760;2022-11-02T10:15:28;24.27;;;6.85;;
5752;SDS011;2901;42.140;24.760;2022-11-02T10:18:02;14.95;;;6.78;;
5752;SDS011;2901;42.140;24.760;2022-11-02T10:20:33;21.90;;;6.72;;
5752;SDS011;2901;42.140;24.760;2022-11-02T10:23:07;8.77;;;6.05;;
5752;SDS011;2901;42.140;24.760;2022-11-02T10:25:36;26.00;;;5.47;;
5752;SDS011;2901;42.140;24.760;2022-11-02T10:28:13;19.60;;;5.80;;
5752;SDS011;2901;42.140;24.760;2022-11-02T10:30:43;19.13;;;7.13;;
5752;SDS011;2901;42.140;24.760;2022-11-02T10:33:27;17.73;;;5.90;;
5752;SDS011;2901;42.140;24.760;2022-11-02T10:44:32;16.98;;;4.82;;
5752;SDS011;2901;42.140;24.760;2022-11-02T10:52:16;16.60;;;5.72;;
5752;SDS011;2901;42.140;24.760;2022-11-02T10:54:42;18.58;;;5.38;;
5752;SDS011;2901;42.140;24.760;2022-11-02T10:57:09;23.25;;;4.38;;
5752;SDS011;2901;42.140;24.760;2022-11-02T10:59:37;14.20;;;4.00;;
5752;SDS011;2901;42.140;24.760;2022-11-02T11:02:03;16.00;;;5.22;;
5752;SDS011;2901;42.140;24.760;2022-11-02T11:04:35;15.95;;;4.28;;
5752;SDS011;2901;42.140;24.760;2022-11-02T11:07:05;13.98;;;4.22;;
5752;SDS011;2901;42.140;24.760;2022-11-02T11:12:31;15.82;;;3.97;;
5752;SDS011;2901;42.140;24.760;2022-11-02T11:15:01;13.02;;;3.38;;
5752;SDS011;2901;42.140;24.760;2022-11-02T11:17:33;10.07;;;3.20;;
5752;SDS011;2901;42.140;24.760;2022-11-02T11:20:02;10.75;;;3.88;;
5752;SDS011;2901;42.140;24.760;2022-11-02T11:22:37;7.20;;;4.18;;
5752;SDS011;2901;42.140;24.760;2022-11-02T11:25:23;12.57;;;4.15;;
5752;SDS011;2901;42.140;24.760;2022-11-02T11:32:47;13.88;;;3.53;;
5752;SDS011;2901;42.140;24.760;2022-11-02T11:35:14;14.13;;;3.50;;
5752;SDS011;2901;42.140;24.760;2022-11-02T11:37:48;17.90;;;3.33;;
5752;SDS011;2901;42.140;24.760;2022-11-02T11:40:19;24.10;;;3.95;;
5752;SDS011;2901;42.140;24.760;2022-11-02T11:42:45;9.98;;;3.53;;
5752;SDS011;2901;42.140;24.760;2022-11-02T11:45:25;8.40;;;3.63;;
5752;SDS011;2901;42.140;24.760;2022-11-02T11:47:52;14.00;;;3.47;;
5752;SDS011;2901;42.140;24.760;2022-11-02T11:50:20;18.08;;;4.18;;
5752;SDS011;2901;42.140;24.760;2022-11-02T11:52:46;14.73;;;3.53;;
5752;SDS011;2901;42.140;24.760;2022-11-02T11:57:46;9.70;;;3.72;;
5752;SDS011;2901;42.140;24.760;2022-11-02T12:00:28;7.95;;;3.45;;
5752;SDS011;2901;42.140;24.760;2022-11-02T12:03:01;9.95;;;3.90;;
5752;SDS011;2901;42.140;24.760;2022-11-02T12:05:30;10.90;;;3.58;;
5752;SDS011;2901;42.140;24.760;2022-11-02T12:08:01;12.32;;;3.25;;
5752;SDS011;2901;42.140;24.760;2022-11-02T12:16:33;12.98;;;3.67;;
5752;SDS011;2901;42.140;24.760;2022-11-02T12:30:01;10.77;;;4.38;;
5752;SDS011;2901;42.140;24.760;2022-11-02T12:32:47;11.13;;;3.65;;
5752;SDS011;2901;42.140;24.760;2022-11-02T12:38:33;11.18;;;3.72;;
5752;SDS011;2901;42.140;24.760;2022-11-02T12:41:06;11.45;;;3.20;;
5752;SDS011;2901;42.140;24.760;2022-11-02T12:51:11;6.13;;;3.28;;
5752;SDS011;2901;42.140;24.760;2022-11-02T12:53:49;6.40;;;3.10;;
5752;SDS011;2901;42.140;24.760;2022-11-02T12:56:21;10.52;;;3.17;;
5752;SDS011;2901;42.140;24.760;2022-11-02T12:58:50;5.95;;;2.50;;
5752;SDS011;2901;42.140;24.760;2022-11-02T13:04:03;7.93;;;2.42;;
5752;SDS011;2901;42.140;24.760;2022-11-02T13:06:37;3.08;;;2.30;;
5752;SDS011;2901;42.140;24.760;2022-11-02T13:09:06;6.65;;;1.73;;
5752;SDS011;2901;42.140;24.760;2022-11-02T13:11:49;15.98;;;2.50;;
5752;SDS011;2901;42.140;24.760;2022-11-02T13:14:18;3.67;;;2.10;;
5752;SDS011;2901;42.140;24.760;2022-11-02T13:16:51;5.05;;;2.00;;
5752;SDS011;2901;42.140;24.760;2022-11-02T13:22:15;8.18;;;2.72;;
5752;SDS011;2901;42.140;24.760;2022-11-02T13:24:45;7.72;;;3.08;;
5752;SDS011;2901;42.140;24.760;2022-11-02T13:27:33;6.70;;;2.83;;
5752;SDS011;2901;42.140;24.760;2022-11-02T13:30:02;11.80;;;2.78;;
5752;SDS011;2901;42.140;24.760;2022-11-02T13:32:37;4.80;;;2.53;;
5752;SDS011;2901;42.140;24.760;2022-11-02T13:37:48;8.48;;;2.67;;
5752;SDS011;2901;42.140;24.760;2022-11-02T13:40:46;10.48;;;2.50;;
5752;SDS011;2901;42.140;24.760;2022-11-02T13:46:22;6.72;;;2.50;;
5752;SDS011;2901;42.140;24.760;2022-11-02T13:49:12;6.75;;;2.25;;
5752;SDS011;2901;42.140;24.760;2022-11-02T13:51:46;11.18;;;2.47;;
5752;SDS011;2901;42.140;24.760;2022-11-02T13:54:29;11.25;;;2.70;;
5752;SDS011;2901;42.140;24.760;2022-11-02T13:56:58;6.78;;;3.42;;
5752;SDS011;2901;42.140;24.760;2022-11-02T13:59:36;6.15;;;2.83;;
5752;SDS011;2901;42.140;24.760;2022-11-02T14:02:02;19.85;;;3.20;;
5752;SDS011;2901;42.140;24.760;2022-11-02T14:04:37;16.25;;;3.63;;
5752;SDS011;2901;42.140;24.760;2022-11-02T14:07:21;6.03;;;2.75;;
5752;SDS011;2901;42.140;24.760;2022-11-02T14:10:12;5.18;;;2.15;;
5752;SDS011;2901;42.140;24.760;2022-11-02T14:12:46;12.35;;;2.40;;
5752;SDS011;2901;42.140;24.760;2022-11-02T14:20:36;11.68;;;2.85;;
5752;SDS011;2901;42.140;24.760;2022-11-02T14:33:28;8.20;;;3.10;;
5752;SDS011;2901;42.140;24.760;2022-11-02T14:38:47;13.18;;;3.88;;
5752;SDS011;2901;42.140;24.760;2022-11-02T14:43:57;10.85;;;3.40;;
5752;SDS011;2901;42.140;24.760;2022-11-02T14:49:22;7.93;;;2.70;;
5752;SDS011;2901;42.140;24.760;2022-11-02T14:51:54;17.98;;;3.45;;
5752;SDS011;2901;42.140;24.760;2022-11-02T14:54:24;16.27;;;2.85;;
5752;SDS011;2901;42.140;24.760;2022-11-02T15:02:04;17.58;;;3.63;;
5752;SDS011;2901;42.140;24.760;2022-11-02T15:04:54;8.68;;;2.95;;
5752;SDS011;2901;42.140;24.760;2022-11-02T15:07:29;15.88;;;3.30;;
5752;SDS011;2901;42.140;24.760;2022-11-02T15:10:01;13.32;;;3.45;;
5752;SDS011;2901;42.140;24.760;2022-11-02T15:12:39;10.20;;;3.17;;
5752;SDS011;2901;42.140;24.760;2022-11-02T15:17:50;9.98;;;2.75;;
5752;SDS011;2901;42.140;24.760;2022-11-02T15:22:55;8.45;;;2.85;;
5752;SDS011;2901;42.140;24.760;2022-11-02T15:28:02;19.70;;;3.42;;
5752;SDS011;2901;42.140;24.760;2022-11-02T15:30:31;9.60;;;3.65;;
5752;SDS011;2901;42.140;24.760;2022-11-02T15:33:03;13.05;;;4.10;;
5752;SDS011;2901;42.140;24.760;2022-11-02T15:35:33;16.70;;;4.35;;
5752;SDS011;2901;42.140;24.760;2022-11-02T15:38:02;9.25;;;4.05;;
5752;SDS011;2901;42.140;24.760;2022-11-02T15:40:33;15.00;;;3.45;;
5752;SDS011;2901;42.140;24.760;2022-11-02T15:48:19;18.65;;;4.13;;
5752;SDS011;2901;42.140;24.760;2022-11-02T16:01:28;20.40;;;5.03;;
5752;SDS011;2901;42.140;24.760;2022-11-02T16:04:00;24.52;;;5.53;;
5752;SDS011;2901;42.140;24.760;2022-11-02T16:06:29;15.73;;;5.88;;
5752;SDS011;2901;42.140;24.760;2022-11-02T16:08:59;19.45;;;5.13;;
5752;SDS011;2901;42.140;24.760;2022-11-02T16:11:26;21.13;;;5.63;;
5752;SDS011;2901;42.140;24.760;2022-11-02T16:13:52;18.67;;;4.72;;
5752;SDS011;2901;42.140;24.760;2022-11-02T16:16:49;23.20;;;5.60;;
5752;SDS011;2901;42.140;24.760;2022-11-02T16:19:17;15.40;;;5.07;;
5752;SDS011;2901;42.140;24.760;2022-11-02T16:21:44;17.92;;;4.57;;
5752;SDS011;2901;42.140;24.760;2022-11-02T16:24:09;9.32;;;4.97;;
5752;SDS011;2901;42.140;24.760;2022-11-02T16:26:35;15.82;;;4.63;;
5752;SDS011;2901;42.140;24.760;2022-11-02T16:29:00;10.23;;;4.18;;
5752;SDS011;2901;42.140;24.760;2022-11-02T16:31:29;22.08;;;13.98;;
5752;SDS011;2901;42.140;24.760;2022-11-02T16:34:02;23.92;;;7.80;;
5752;SDS011;2901;42.140;24.760;2022-11-02T16:36:36;24.45;;;11.90;;
5752;SDS011;2901;42.140;24.760;2022-11-02T16:39:06;27.98;;;10.07;;
5752;SDS011;2901;42.140;24.760;2022-11-02T16:41:38;19.77;;;12.63;;
5752;SDS011;2901;42.140;24.760;2022-11-02T16:46:58;20.27;;;7.25;;
5752;SDS011;2901;42.140;24.760;2022-11-02T16:54:50;18.77;;;4.68;;
5752;SDS011;2901;42.140;24.760;2022-11-02T16:57:23;12.98;;;5.28;;
5752;SDS011;2901;42.140;24.760;2022-11-02T16:59:58;20.27;;;5.72;;
5752;SDS011;2901;42.140;24.760;2022-11-02T17:02:30;10.85;;;5.50;;
5752;SDS011;2901;42.140;24.760;2022-11-02T17:04:56;14.35;;;5.80;;
5752;SDS011;2901;42.140;24.760;2022-11-02T17:07:29;15.77;;;5.15;;
5752;SDS011;2901;42.140;24.760;2022-11-02T17:10:02;13.48;;;5.65;;
5752;SDS011;2901;42.140;24.760;2022-11-02T17:12:33;15.15;;;6.43;;
5752;SDS011;2901;42.140;24.760;2022-11-02T17:15:02;20.05;;;7.05;;
5752;SDS011;2901;42.140;24.760;2022-11-02T17:17:37;20.25;;;6.35;;
5752;SDS011;2901;42.140;24.760;2022-11-02T17:20:05;23.17;;;6.00;;
5752;SDS011;2901;42.140;24.760;2022-11-02T17:25:27;15.07;;;7.03;;
5752;SDS011;2901;42.140;24.760;2022-11-02T17:27:53;18.13;;;6.50;;
5752;SDS011;2901;42.140;24.760;2022-11-02T17:30:39;18.25;;;6.45;;
5752;SDS011;2901;42.140;24.760;2022-11-02T17:33:22;14.40;;;6.60;;
5752;SDS011;2901;42.140;24.760;2022-11-02T17:35:51;26.88;;;7.32;;
5752;SDS011;2901;42.140;24.760;2022-11-02T17:38:19;23.65;;;7.40;;
5752;SDS011;2901;42.140;24.760;2022-11-02T17:40:48;22.85;;;9.05;;
5752;SDS011;2901;42.140;24.760;2022-11-02T17:43:16;30.95;;;8.70;;
5752;SDS011;2901;42.140;24.760;2022-11-02T17:45:52;29.27;;;10.05;;
5752;SDS011;2901;42.140;24.760;2022-11-02T17:48:21;19.33;;;10.13;;
5752;SDS011;2901;42.140;24.760;2022-11-02T17:50:50;34.85;;;10.45;;
5752;SDS011;2901;42.140;24.760;2022-11-02T17:53:17;17.10;;;5.65;;
5752;SDS011;2901;42.140;24.760;2022-11-02T17:55:42;17.85;;;7.80;;